createdAt,value
2022-09-06T00:01:49.914Z,18.60
2022-09-06T00:04:19.542Z,18.60
2022-09-06T00:06:54.551Z,18.60
2022-09-06T00:09:23.294Z,18.60
2022-09-06T00:24:57.717Z,18.70
2022-09-06T00:27:27.112Z,18.80
2022-09-06T00:38:02.502Z,18.80
2022-09-06T00:40:34.853Z,18.80
2022-09-06T00:43:04.611Z,18.80
2022-09-06T00:50:50.952Z,18.90
2022-09-06T00:53:23.565Z,18.90
2022-09-06T01:01:08.987Z,18.90
2022-09-06T01:03:38.836Z,18.80
2022-09-06T01:12:05.181Z,18.80
2022-09-06T01:14:45.833Z,18.90
2022-09-06T01:17:17.110Z,18.80
2022-09-06T01:19:56.305Z,18.80
2022-09-06T01:28:23.006Z,18.70
2022-09-06T01:31:17.517Z,18.70
2022-09-06T01:34:11.843Z,18.70
2022-09-06T01:37:09.009Z,18.70
2022-09-06T01:39:46.747Z,18.70
2022-09-06T01:42:20.010Z,18.70
2022-09-06T01:45:25.758Z,18.60
2022-09-06T01:53:16.617Z,18.60
2022-09-06T01:55:50.999Z,18.50
2022-09-06T01:58:33.214Z,18.50
2022-09-06T02:37:36.253Z,17.90
2022-09-06T02:40:06.235Z,17.80
2022-09-06T02:42:40.538Z,17.80
2022-09-06T02:45:17.726Z,17.90
2022-09-06T02:47:47.751Z,17.80
2022-09-06T02:50:16.249Z,17.80
2022-09-06T02:52:46.885Z,17.80
2022-09-06T03:10:12.017Z,17.70
2022-09-06T03:12:45.507Z,17.70
2022-09-06T03:15:15.299Z,17.70
2022-09-06T03:17:44.871Z,17.60
2022-09-06T03:27:26.928Z,17.70
2022-09-06T03:29:57.351Z,17.70
2022-09-06T03:36:27.240Z,17.70
2022-09-06T03:39:07.489Z,17.60
2022-09-06T03:41:45.036Z,17.60
2022-09-06T03:49:08.765Z,17.60
2022-09-06T03:51:37.028Z,17.70
2022-09-06T03:58:57.004Z,17.70
2022-09-06T04:01:29.006Z,17.50
2022-09-06T04:04:05.022Z,17.50
2022-09-06T04:06:35.015Z,17.50
2022-09-06T04:09:04.285Z,17.40
2022-09-06T04:15:31.957Z,17.50
2022-09-06T05:23:20.999Z,16.90
2022-09-06T05:25:52.680Z,16.90
2022-09-06T05:29:30.706Z,16.90
2022-09-06T05:32:00.407Z,16.90
2022-09-06T05:34:29.154Z,16.90
2022-09-06T05:41:53.848Z,16.90
2022-09-06T05:44:55.455Z,16.90
2022-09-06T05:47:36.882Z,16.90
2022-09-06T05:50:07.739Z,16.80
2022-09-06T05:52:40.231Z,16.80
2022-09-06T05:55:09.315Z,16.70
2022-09-06T05:57:40.867Z,16.90
2022-09-06T06:00:16.507Z,16.90
2022-09-06T06:02:48.402Z,16.90
2022-09-06T06:05:23.785Z,16.90
2022-09-06T06:07:52.082Z,17.00
2022-09-06T06:10:20.614Z,17.00
2022-09-06T06:12:49.866Z,17.00
2022-09-06T06:15:17.714Z,17.00
2022-09-06T06:17:45.335Z,17.10
2022-09-06T06:20:19.507Z,17.20
2022-09-06T06:22:47.869Z,17.20
2022-09-06T06:25:16.126Z,17.20
2022-09-06T06:27:44.490Z,17.30
2022-09-06T06:30:17.775Z,17.30
2022-09-06T06:32:46.425Z,17.30
2022-09-06T06:35:15.501Z,17.30
2022-09-06T06:37:45.915Z,17.50
2022-09-06T06:40:14.615Z,17.40
2022-09-06T06:42:42.467Z,17.60
2022-09-06T06:45:11.433Z,17.70
2022-09-06T06:47:41.199Z,17.80
2022-09-06T06:50:11.836Z,17.80
2022-09-06T06:52:41.474Z,17.90
2022-09-06T06:55:41.418Z,18.00
2022-09-06T06:58:09.629Z,18.10
2022-09-06T07:00:38.306Z,18.20
2022-09-06T08:01:19.646Z,22.10
2022-09-06T08:03:49.291Z,22.00
2022-09-06T08:10:14.786Z,23.10
2022-09-06T08:46:55.755Z,24.70
2022-09-06T08:49:30.855Z,25.40
2022-09-06T08:52:28.404Z,26.40
2022-09-06T09:17:04.238Z,26.60
2022-09-06T09:23:31.771Z,28.40
2022-09-06T09:26:05.812Z,26.90
2022-09-06T09:28:36.617Z,26.70
2022-09-06T09:31:08.775Z,25.40
2022-09-06T09:33:40.940Z,25.80
2022-09-06T09:36:13.702Z,25.80
2022-09-06T09:39:37.226Z,26.10
2022-09-06T09:46:52.537Z,25.30
2022-09-06T09:49:26.930Z,25.00
2022-09-06T09:52:12.137Z,24.80
2022-09-06T09:54:47.520Z,24.60
2022-09-06T10:02:46.175Z,26.20
2022-09-06T10:14:51.692Z,25.80
2022-09-06T10:17:30.062Z,25.10
2022-09-06T10:20:11.993Z,24.50
2022-09-06T10:27:34.220Z,23.80
2022-09-06T10:30:07.771Z,23.30
2022-09-06T10:37:38.429Z,23.30
2022-09-06T10:40:12.213Z,23.40
2022-09-06T10:42:44.761Z,23.40
2022-09-06T10:49:18.993Z,23.60
2022-09-06T10:52:26.362Z,23.60
2022-09-06T10:54:58.462Z,24.10
2022-09-06T11:00:28.243Z,24.20
2022-09-06T11:06:14.132Z,23.90
2022-09-06T11:08:49.054Z,24.00
2022-09-06T11:11:23.532Z,23.70
2022-09-06T11:14:24.055Z,24.30
2022-09-06T11:22:14.719Z,25.50
2022-09-06T11:24:48.163Z,25.50
2022-09-06T11:27:34.318Z,26.10
2022-09-06T11:30:04.421Z,26.80
2022-09-06T11:32:35.663Z,27.30
2022-09-06T11:35:07.456Z,26.90
2022-09-06T11:37:39.611Z,26.70
2022-09-06T11:42:59.647Z,26.20
2022-09-06T11:45:42.287Z,26.40
2022-09-06T11:48:26.861Z,26.80
2022-09-06T11:50:59.010Z,28.00
2022-09-06T11:53:32.402Z,28.50
2022-09-06T11:56:00.400Z,27.50
2022-09-06T11:58:30.661Z,26.70
2022-09-06T12:05:31.525Z,27.30
2022-09-06T12:08:14.423Z,27.30
2022-09-06T12:10:46.200Z,26.60
2022-09-06T12:13:32.653Z,26.50
2022-09-06T12:16:05.325Z,27.40
2022-09-06T12:18:42.725Z,27.20
2022-09-06T12:21:52.401Z,27.00
2022-09-06T12:24:39.299Z,26.60
2022-09-06T12:27:16.138Z,26.90
2022-09-06T12:30:02.125Z,26.50
2022-09-06T12:32:38.360Z,26.60
2022-09-06T12:38:06.665Z,27.70
2022-09-06T12:40:48.098Z,28.70
2022-09-06T12:43:17.606Z,27.90
2022-09-06T12:45:46.806Z,27.70
2022-09-06T12:48:27.206Z,28.60
2022-09-06T12:51:05.900Z,28.90
2022-09-06T12:53:34.904Z,28.20
2022-09-06T12:56:04.496Z,28.30
2022-09-06T12:58:33.050Z,28.60
2022-09-06T13:01:23.014Z,28.80
2022-09-06T13:03:55.856Z,29.50
2022-09-06T13:06:27.195Z,29.50
2022-09-06T13:09:03.389Z,29.20
2022-09-06T13:11:44.018Z,29.40
2022-09-06T13:14:14.533Z,29.60
2022-09-06T13:16:48.271Z,29.70
2022-09-06T13:19:29.185Z,29.60
2022-09-06T13:22:00.628Z,29.20
2022-09-06T13:24:34.334Z,28.40
2022-09-06T13:27:21.957Z,28.10
2022-09-06T13:30:07.266Z,28.20
2022-09-06T13:32:35.927Z,27.60
2022-09-06T13:35:04.451Z,27.40
2022-09-06T13:37:41.276Z,27.30
2022-09-06T13:40:28.663Z,27.60
2022-09-06T13:43:00.633Z,27.40
2022-09-06T13:45:29.109Z,27.30
2022-09-06T13:48:19.058Z,27.30
2022-09-06T13:50:45.691Z,28.10
2022-09-06T13:53:19.420Z,28.40
2022-09-06T13:55:47.404Z,28.20
2022-09-06T13:58:24.640Z,28.10
2022-09-06T14:00:56.260Z,28.70
2022-09-06T14:03:28.974Z,28.60
2022-09-06T14:05:57.203Z,28.80
2022-09-06T14:08:25.411Z,28.90
2022-09-06T14:10:53.655Z,28.70
2022-09-06T14:13:23.021Z,28.70
2022-09-06T14:15:51.146Z,28.60
2022-09-06T14:18:22.537Z,28.60
2022-09-06T14:20:54.554Z,28.70
2022-09-06T14:23:23.606Z,29.30
2022-09-06T14:26:00.453Z,29.40
2022-09-06T14:28:31.383Z,28.70
2022-09-06T14:31:16.100Z,29.60
2022-09-06T14:33:44.045Z,29.10
2022-09-06T14:36:13.468Z,28.90
2022-09-06T14:38:42.457Z,28.80
2022-09-06T14:41:14.577Z,28.70
2022-09-06T14:43:44.047Z,28.60
2022-09-06T14:46:14.436Z,28.20
2022-09-06T14:48:43.897Z,28.00
2022-09-06T14:51:19.762Z,28.00
2022-09-06T14:53:53.312Z,28.20
2022-09-06T14:56:27.756Z,28.70
2022-09-06T14:58:57.605Z,28.60
2022-09-06T15:01:37.092Z,28.90
2022-09-06T15:04:06.412Z,29.30
2022-09-06T15:06:40.376Z,28.90
2022-09-06T15:09:08.390Z,29.00
2022-09-06T15:11:36.092Z,29.20
2022-09-06T15:14:09.074Z,28.70
2022-09-06T15:16:37.036Z,28.50
2022-09-06T15:19:04.732Z,28.80
2022-09-06T15:21:32.677Z,28.70
2022-09-06T15:24:02.103Z,28.30
2022-09-06T15:26:30.619Z,28.20
2022-09-06T15:29:02.682Z,28.10
2022-09-06T15:31:34.220Z,28.00
2022-09-06T15:34:02.964Z,28.10
2022-09-06T15:36:31.222Z,28.00
2022-09-06T15:39:01.073Z,28.20
2022-09-06T15:41:29.583Z,27.80
2022-09-06T15:43:58.956Z,28.00
2022-09-06T15:46:42.089Z,27.70
2022-09-06T15:49:11.594Z,27.60
2022-09-06T15:51:40.571Z,27.30
2022-09-06T15:54:08.767Z,27.40
2022-09-06T15:56:37.393Z,27.40
2022-09-06T15:59:06.048Z,27.70
2022-09-06T16:01:36.718Z,27.10
2022-09-06T16:04:06.131Z,27.20
2022-09-06T16:06:35.971Z,27.30
2022-09-06T16:09:08.429Z,27.30
2022-09-06T16:11:37.074Z,27.20
2022-09-06T16:14:05.505Z,26.90
2022-09-06T16:16:34.636Z,26.60
2022-09-06T16:19:02.769Z,26.70
2022-09-06T16:21:37.045Z,26.70
2022-09-06T16:24:06.522Z,26.70
2022-09-06T16:26:36.545Z,26.70
2022-09-06T16:29:05.109Z,26.70
2022-09-06T16:31:39.161Z,26.70
2022-09-06T16:34:11.931Z,26.60
2022-09-06T16:36:40.061Z,26.50
2022-09-06T16:39:12.765Z,26.40
2022-09-06T16:41:42.667Z,26.40
2022-09-06T16:44:14.554Z,26.20
2022-09-06T16:46:43.264Z,26.20
2022-09-06T16:49:13.188Z,26.20
2022-09-06T16:51:41.023Z,26.00
2022-09-06T16:54:09.645Z,26.00
2022-09-06T16:56:39.079Z,25.90
2022-09-06T16:59:07.659Z,25.90
2022-09-06T17:01:36.793Z,25.80
2022-09-06T17:04:05.682Z,25.70
2022-09-06T17:06:38.205Z,25.60
2022-09-06T17:09:38.461Z,25.60
2022-09-06T17:12:06.097Z,25.60
2022-09-06T17:14:34.401Z,25.60
2022-09-06T17:17:05.883Z,25.50
2022-09-06T17:19:43.566Z,25.40
2022-09-06T17:22:12.727Z,25.40
2022-09-06T17:24:45.006Z,25.30
2022-09-06T17:27:13.419Z,25.20
2022-09-06T17:29:49.344Z,25.20
2022-09-06T17:32:23.538Z,25.10
2022-09-06T17:34:56.060Z,25.10
2022-09-06T17:37:23.860Z,24.90
2022-09-06T17:39:51.862Z,24.90
2022-09-06T17:42:19.932Z,24.80
2022-09-06T17:44:48.512Z,24.70
2022-09-06T17:47:22.546Z,24.70
2022-09-06T17:49:51.150Z,24.50
2022-09-06T17:52:20.564Z,24.50
2022-09-06T17:54:49.527Z,24.30
2022-09-06T17:57:23.634Z,24.20
2022-09-06T17:59:51.422Z,24.10
2022-09-06T18:02:19.657Z,24.00
2022-09-06T18:04:48.422Z,23.90
2022-09-06T18:07:17.965Z,23.80
2022-09-06T18:09:46.730Z,23.70
2022-09-06T18:12:14.582Z,23.70
2022-09-06T18:14:52.844Z,23.70
2022-09-06T18:17:20.818Z,23.70
2022-09-06T18:19:48.474Z,23.60
2022-09-06T18:22:17.374Z,23.50
2022-09-06T18:24:45.211Z,23.30
2022-09-06T18:27:19.959Z,23.20
2022-09-06T18:29:49.553Z,23.10
2022-09-06T18:32:17.409Z,23.10
2022-09-06T18:38:03.122Z,23.00
2022-09-06T18:40:32.670Z,22.90
2022-09-06T18:43:01.767Z,22.80
2022-09-06T18:45:33.579Z,22.70
2022-09-06T18:48:04.156Z,22.70
2022-09-06T18:50:31.967Z,22.70
2022-09-06T18:53:00.178Z,22.60
2022-09-06T18:55:28.538Z,22.60
2022-09-06T18:57:57.069Z,22.50
2022-09-06T19:00:28.702Z,22.50
2022-09-06T19:02:56.674Z,22.50
2022-09-06T19:05:24.255Z,22.50
2022-09-06T19:07:52.464Z,22.50
2022-09-06T19:10:26.752Z,22.50
2022-09-06T19:12:57.165Z,22.50
2022-09-06T19:15:25.749Z,22.50
2022-09-06T19:17:53.746Z,22.40
2022-09-06T19:20:25.589Z,22.40
2022-09-06T19:22:53.597Z,22.30
2022-09-06T19:25:27.399Z,22.20
2022-09-06T19:27:55.140Z,22.20
2022-09-06T19:30:23.841Z,22.10
2022-09-06T19:32:56.885Z,22.00
2022-09-06T19:35:37.301Z,22.00
2022-09-06T19:38:12.235Z,21.90
2022-09-06T19:40:40.788Z,21.90
2022-09-06T19:43:09.052Z,21.80
2022-09-06T19:45:38.127Z,21.80
2022-09-06T19:48:07.049Z,21.70
2022-09-06T19:50:36.668Z,21.70
2022-09-06T19:53:07.311Z,21.70
2022-09-06T19:55:35.895Z,21.60
2022-09-06T19:58:36.514Z,21.50
2022-09-06T20:01:05.750Z,21.40
2022-09-06T20:03:38.360Z,21.40
2022-09-06T20:06:07.754Z,21.40
2022-09-06T20:08:36.084Z,21.40
2022-09-06T20:11:05.752Z,21.30
2022-09-06T20:13:37.763Z,21.30
2022-09-06T20:16:10.476Z,21.20
2022-09-06T20:18:45.337Z,21.20
2022-09-06T20:21:46.245Z,21.20
2022-09-06T20:24:14.569Z,21.10
2022-09-06T20:26:42.627Z,21.10
2022-09-06T20:29:16.771Z,21.00
2022-09-06T20:31:45.065Z,21.00
2022-09-06T20:34:17.638Z,21.00
2022-09-06T20:36:47.609Z,21.00
2022-09-06T20:39:16.614Z,20.90
2022-09-06T20:41:48.461Z,20.90
2022-09-06T20:44:16.819Z,21.00
2022-09-06T20:46:45.187Z,20.90
2022-09-06T20:49:15.144Z,20.90
2022-09-06T20:51:43.389Z,20.90
2022-09-06T20:54:11.884Z,20.80
2022-09-06T20:56:41.094Z,20.80
2022-09-06T20:59:12.267Z,20.70
2022-09-06T21:01:48.412Z,20.70
2022-09-06T21:04:17.008Z,20.60
2022-09-06T21:06:46.144Z,20.60
2022-09-06T21:09:14.400Z,20.50
2022-09-06T21:11:44.451Z,20.40
2022-09-06T21:14:18.778Z,20.40
2022-09-06T21:16:46.598Z,20.40
2022-09-06T21:19:18.290Z,20.40
2022-09-06T21:21:47.321Z,20.40
2022-09-06T21:24:15.446Z,20.40
2022-09-06T21:26:45.026Z,20.40
2022-09-06T21:29:14.518Z,20.40
2022-09-06T21:31:44.092Z,20.40
2022-09-06T21:34:16.852Z,20.40
2022-09-06T21:36:45.455Z,20.40
2022-09-06T21:39:13.997Z,20.40
2022-09-06T21:41:42.886Z,20.40
2022-09-06T21:44:11.432Z,20.40
2022-09-06T21:46:40.431Z,20.40
2022-09-06T21:49:11.513Z,20.30
2022-09-06T21:51:40.176Z,20.40
2022-09-06T21:54:10.881Z,20.30
2022-09-06T21:56:47.080Z,20.30
2022-09-06T21:59:15.584Z,20.30
2022-09-06T22:01:45.275Z,20.30
2022-09-06T22:04:14.882Z,20.20
2022-09-06T22:06:42.566Z,20.20
2022-09-06T22:09:11.651Z,20.20
2022-09-06T22:11:40.801Z,20.10
2022-09-06T22:14:13.891Z,20.10
2022-09-06T22:16:41.676Z,20.10
2022-09-06T22:19:13.575Z,20.10
2022-09-06T22:21:41.447Z,20.00
2022-09-06T22:24:10.796Z,20.00
2022-09-06T22:26:41.153Z,20.00
2022-09-06T22:29:10.788Z,20.00
2022-09-06T22:31:39.617Z,20.00
2022-09-06T22:34:07.629Z,19.80
2022-09-06T22:36:35.483Z,19.90
2022-09-06T22:39:05.226Z,19.90
2022-09-06T22:41:34.188Z,19.90
2022-09-06T22:44:03.033Z,19.90
2022-09-06T22:46:31.589Z,20.00
2022-09-06T22:49:02.418Z,20.00
2022-09-06T22:51:37.793Z,19.90
2022-09-06T22:54:09.833Z,19.90
2022-09-06T22:56:37.573Z,19.80
2022-09-06T22:59:09.524Z,19.80
2022-09-06T23:01:39.541Z,19.80
2022-09-06T23:04:11.725Z,19.80
2022-09-06T23:06:40.182Z,19.80
2022-09-06T23:09:08.963Z,19.80
2022-09-06T23:11:38.317Z,19.80
2022-09-06T23:14:06.307Z,19.80
2022-09-06T23:16:34.417Z,19.80
2022-09-06T23:19:02.294Z,19.70
2022-09-06T23:21:30.911Z,19.70
2022-09-06T23:23:58.952Z,19.70
2022-09-06T23:26:30.711Z,19.60
2022-09-06T23:28:58.859Z,19.70
2022-09-06T23:31:31.711Z,19.70
2022-09-06T23:34:00.575Z,19.70
2022-09-06T23:36:28.869Z,19.60
2022-09-06T23:38:57.199Z,19.60
2022-09-06T23:41:32.551Z,19.50
2022-09-06T23:44:04.509Z,19.50
2022-09-06T23:46:37.028Z,19.50
2022-09-06T23:49:05.612Z,19.60
2022-09-06T23:51:33.730Z,19.60
2022-09-06T23:54:01.798Z,19.60
2022-09-06T23:56:34.594Z,19.50
2022-09-06T23:59:02.660Z,19.50
